Time;durP1;ratioP1;P1;durP2;ratioP2;P2;SDS_P1;SDS_P2;PMS_P1;PMS_P2;Temp;Humidity;BMP_temperature;BMP_pressure;BME280_temperature;BME280_humidity;BME280_pressure;Samples;Min_cycle;Max_cycle;Signal;HPM_P1;HPM_P2
2022/01/03 00:00:37;;;;;;;18.83;2.35;;;8.20;99.90;;;;;;5073704;28;20055;-67
2022/01/03 00:03:06;;;;;;;14.45;2.28;;;8.30;99.90;;;;;;5074087;28;20048;-66
2022/01/03 00:05:32;;;;;;;15.02;2.63;;;9.50;99.90;;;;;;5075367;28;20561;-68
2022/01/03 00:07:58;;;;;;;18.23;2.55;;;8.20;99.90;;;;;;5074833;28;20127;-67
2022/01/03 00:10:24;;;;;;;15.77;2.42;;;8.50;99.90;;;;;;5074814;28;20124;-67
2022/01/03 00:12:50;;;;;;;;;;;8.40;99.90;;;;;;5075084;28;20041;-67
2022/01/03 00:15:17;;;;;;;18.10;2.60;;;8.70;99.90;;;;;;5075221;28;19921;-68
2022/01/03 00:17:44;;;;;;;13.15;2.25;;;8.40;99.90;;;;;;5074477;28;20427;-69
2022/01/03 00:20:11;;;;;;;15.65;2.60;;;8.50;99.90;;;;;;5075358;28;20429;-68
2022/01/03 00:22:50;;;;;;;14.05;2.25;;;8.40;99.90;;;;;;5074967;28;20404;-68
2022/01/03 00:25:20;;;;;;;14.40;2.47;;;8.30;99.90;;;;;;5075354;28;20048;-67
2022/01/03 00:27:58;;;;;;;19.27;2.03;;;8.40;99.90;;;;;;5074377;28;20082;-67
2022/01/03 00:30:25;;;;;;;29.17;2.85;;;8.30;99.90;;;;;;5074659;28;20473;-67
2022/01/03 00:32:51;;;;;;;14.55;2.72;;;8.30;99.90;;;;;;5056680;28;20109;-69
2022/01/03 00:35:19;;;;;;;18.50;2.70;;;8.50;99.90;;;;;;5073693;28;20063;-68
2022/01/03 00:37:46;;;;;;;19.63;2.60;;;8.50;99.90;;;;;;5074221;28;20493;-67
2022/01/03 00:40:14;;;;;;;21.45;2.72;;;8.40;99.90;;;;;;5073784;28;20156;-70
2022/01/03 00:42:40;;;;;;;22.20;2.95;;;8.30;99.90;;;;;;5074338;28;20439;-68
2022/01/03 00:45:07;;;;;;;21.13;2.47;;;8.30;99.90;;;;;;5073130;28;20496;-68
2022/01/03 00:47:33;;;;;;;15.95;2.50;;;8.30;99.90;;;;;;5074069;28;20047;-69
2022/01/03 00:50:04;;;;;;;26.63;3.50;;;;;;;;;;5074045;28;20049;-69
2022/01/03 00:52:30;;;;;;;27.67;3.58;;;8.20;99.90;;;;;;5073995;28;20135;-69
2022/01/03 00:54:56;;;;;;;23.40;3.65;;;8.20;99.90;;;;;;5074424;28;20127;-68
2022/01/03 00:57:44;;;;;;;24.80;3.30;;;8.40;99.90;;;;;;5072732;28;20101;-68
2022/01/03 01:00:10;;;;;;;27.38;3.33;;;8.60;99.90;;;;;;5073172;28;20053;-68
2022/01/03 01:02:38;;;;;;;22.63;3.38;;;8.10;99.90;;;;;;5107605;28;20373;-68
2022/01/03 01:05:05;;;;;;;31.25;3.47;;;8.20;99.90;;;;;;5072817;28;20049;-69
2022/01/03 01:07:32;;;;;;;32.85;4.47;;;8.30;99.90;;;;;;5072751;28;20063;-68
2022/01/03 01:10:01;;;;;;;33.58;4.07;;;8.20;99.90;;;;;;5073689;28;20083;-69
2022/01/03 01:12:29;;;;;;;26.90;3.85;;;8.10;99.90;;;;;;5073349;28;20040;-69
2022/01/03 01:14:55;;;;;;;22.30;3.42;;;;;;;;;;5073665;28;20040;-70
2022/01/03 01:17:22;;;;;;;19.73;3.17;;;8.30;99.90;;;;;;5072438;28;20101;-68
2022/01/03 01:19:48;;;;;;;41.28;5.22;;;8.20;99.90;;;;;;5055898;28;20548;-68
2022/01/03 01:22:14;;;;;;;28.83;4.60;;;8.30;99.90;;;;;;5072419;28;20049;-68
2022/01/03 01:24:57;;;;;;;33.63;4.85;;;8.20;99.90;;;;;;5072446;28;20055;-71
2022/01/03 01:30:08;;;;;;;37.83;4.55;;;9.90;99.90;;;;;;5073779;28;20113;-70
2022/01/03 01:32:34;;;;;;;;;;;8.40;99.90;;;;;;5073884;28;20470;-68
2022/01/03 01:35:00;;;;;;;35.28;4.65;;;8.50;99.90;;;;;;5073964;28;20340;-71
2022/01/03 01:37:26;;;;;;;26.85;4.50;;;8.70;99.90;;;;;;5073340;28;20036;-68
2022/01/03 01:39:53;;;;;;;35.83;4.63;;;8.50;99.90;;;;;;5071888;28;20052;-68
2022/01/03 01:42:20;;;;;;;30.88;4.45;;;8.40;99.90;;;;;;5073913;28;20065;-71
2022/01/03 01:44:48;;;;;;;27.63;4.28;;;8.50;99.90;;;;;;5073390;28;20044;-69
2022/01/03 01:47:16;;;;;;;32.15;4.70;;;8.60;99.90;;;;;;5073348;28;20082;-68
2022/01/03 01:49:47;;;;;;;31.30;4.38;;;8.80;99.90;;;;;;5072605;28;20182;-69
2022/01/03 01:52:24;;;;;;;41.60;5.47;;;8.60;99.90;;;;;;5073285;28;20049;-68
2022/01/03 01:55:02;;;;;;;38.42;5.85;;;8.70;99.90;;;;;;5073249;28;20052;-70
2022/01/03 01:58:17;;;;;;;40.08;4.95;;;8.70;99.90;;;;;;5073259;28;20178;-67
2022/01/03 02:00:45;;;;;;;30.05;4.13;;;8.70;99.90;;;;;;5069767;28;20052;-68
2022/01/03 02:03:29;;;;;;;30.10;4.22;;;8.70;99.90;;;;;;5072862;28;20048;-67
2022/01/03 02:06:08;;;;;;;40.35;6.18;;;;;;;;;;5073971;28;20384;-68
2022/01/03 02:08:43;;;;;;;33.08;4.85;;;8.60;99.90;;;;;;5072649;28;20431;-67
2022/01/03 02:11:20;;;;;;;42.90;5.65;;;8.60;99.90;;;;;;5073163;28;20059;-67
2022/01/03 02:13:46;;;;;;;34.70;4.18;;;8.70;99.90;;;;;;5073655;28;20053;-68
2022/01/03 02:16:12;;;;;;;26.63;4.78;;;8.80;99.90;;;;;;5072709;28;20481;-68
2022/01/03 02:18:38;;;;;;;37.15;5.80;;;8.50;99.90;;;;;;5073015;28;20060;-70
2022/01/03 02:21:04;;;;;;;27.10;4.45;;;8.60;99.90;;;;;;5071799;28;20545;-69
2022/01/03 02:23:30;;;;;;;;;;;8.50;99.90;;;;;;5073654;28;20040;-68
2022/01/03 02:25:56;;;;;;;31.00;4.63;;;8.60;99.90;;;;;;5075854;28;20280;-72
2022/01/03 02:28:22;;;;;;;32.30;4.63;;;8.80;99.90;;;;;;5077026;28;20076;-68
2022/01/03 02:30:50;;;;;;;33.97;4.43;;;8.80;99.90;;;;;;5077263;28;20496;-67
2022/01/03 02:33:17;;;;;;;32.80;5.10;;;8.70;99.90;;;;;;5076609;28;20048;-68
2022/01/03 02:35:46;;;;;;;40.65;6.00;;;8.40;99.90;;;;;;5076200;28;20637;-68
2022/01/03 02:38:13;;;;;;;29.30;5.38;;;8.70;99.90;;;;;;5076504;28;20040;-68
2022/01/03 02:40:39;;;;;;;36.40;4.78;;;8.90;99.90;;;;;;5077531;28;20059;-68
2022/01/03 02:43:04;;;;;;;38.08;5.40;;;8.50;99.90;;;;;;5076376;28;20048;-70
2022/01/03 02:45:31;;;;;;;34.10;5.07;;;8.80;99.90;;;;;;5075167;28;20048;-68
2022/01/03 02:48:02;;;;;;;35.78;4.95;;;8.80;99.90;;;;;;5076664;28;20430;-69
2022/01/03 02:50:31;;;;;;;32.28;5.03;;;8.70;99.90;;;;;;5076323;28;20496;-69
2022/01/03 02:52:58;;;;;;;43.33;5.07;;;8.70;99.90;;;;;;5076241;28;20138;-70
2022/01/03 02:55:23;;;;;;;;;;;8.60;99.90;;;;;;5076587;28;20117;-70
2022/01/03 02:57:52;;;;;;;43.80;6.00;;;8.60;99.90;;;;;;5076182;28;19924;-70
2022/01/03 03:00:26;;;;;;;30.45;4.90;;;8.40;99.90;;;;;;5076960;28;20044;-68
2022/01/03 03:02:52;;;;;;;38.55;4.85;;;8.50;99.90;;;;;;5076413;28;20048;-69
2022/01/03 03:05:18;;;;;;;36.40;5.22;;;8.90;99.90;;;;;;5075343;28;20056;-70
2022/01/03 03:07:45;;;;;;;38.10;5.25;;;8.50;99.90;;;;;;5076061;28;20044;-68
2022/01/03 03:10:14;;;;;;;33.28;4.68;;;8.40;99.90;;;;;;5076234;28;20055;-68
2022/01/03 03:12:41;;;;;;;31.13;4.72;;;9.00;99.90;;;;;;5075901;28;20044;-72
2022/01/03 03:15:08;;;;;;;38.78;5.55;;;8.50;99.90;;;;;;5075861;28;20053;-68
2022/01/03 03:17:35;;;;;;;36.83;5.18;;;7.90;99.90;;;;;;5076557;28;20071;-69
2022/01/03 03:20:16;;;;;;;37.65;5.30;;;8.30;99.90;;;;;;5074547;28;20174;-69
2022/01/03 03:22:43;;;;;;;38.60;5.68;;;8.40;99.90;;;;;;5074781;28;20056;-74
2022/01/03 03:25:17;;;;;;;45.72;5.47;;;;;;;;;;5075627;28;20088;-68
2022/01/03 03:27:46;;;;;;;43.58;5.07;;;8.30;99.90;;;;;;5074616;28;20499;-69
2022/01/03 03:30:15;;;;;;;42.30;5.53;;;8.40;99.90;;;;;;5076063;28;20376;-68
2022/01/03 03:32:43;;;;;;;37.65;5.90;;;8.40;99.90;;;;;;5075212;28;20488;-71
2022/01/03 03:35:09;;;;;;;49.60;6.22;;;8.70;99.90;;;;;;5075342;28;20044;-68
2022/01/03 03:37:35;;;;;;;38.72;6.32;;;8.00;99.90;;;;;;5075732;28;20384;-67
2022/01/03 03:40:01;;;;;;;36.08;6.25;;;8.40;99.90;;;;;;5075366;28;20083;-69
2022/01/03 03:42:26;;;;;;;40.35;5.75;;;8.30;99.90;;;;;;5075406;28;20048;-70
2022/01/03 03:44:52;;;;;;;44.03;5.63;;;8.50;99.90;;;;;;5074287;28;20048;-68
2022/01/03 03:47:18;;;;;;;40.85;5.65;;;8.40;99.90;;;;;;5074017;28;20128;-68
2022/01/03 03:49:43;;;;;;;40.88;7.15;;;8.10;99.90;;;;;;5075106;28;20083;-68
2022/01/03 03:52:09;;;;;;;41.30;6.40;;;8.30;99.90;;;;;;5108073;28;20079;-68
2022/01/03 03:54:36;;;;;;;39.63;5.97;;;8.40;99.90;;;;;;5075115;28;20052;-68
2022/01/03 03:57:03;;;;;;;32.60;5.13;;;8.60;99.90;;;;;;5075281;28;20067;-67
2022/01/03 03:59:29;;;;;;;40.72;5.75;;;8.70;99.90;;;;;;5075505;28;20162;-68
2022/01/03 04:01:55;;;;;;;37.75;4.88;;;8.50;99.90;;;;;;5074659;28;20044;-68
2022/01/03 04:04:21;;;;;;;;;;;8.10;99.90;;;;;;5076126;28;20056;-68
2022/01/03 04:06:47;;;;;;;39.67;5.43;;;8.70;99.90;;;;;;5074926;28;19926;-68
2022/01/03 04:09:13;;;;;;;;;;;8.10;99.90;;;;;;5075235;28;20084;-68
2022/01/03 04:11:39;;;;;;;43.65;5.40;;;8.20;99.90;;;;;;5074724;28;19965;-68
2022/01/03 04:14:05;;;;;;;29.17;4.10;;;8.40;99.90;;;;;;5074721;28;20040;-69
2022/01/03 04:16:30;;;;;;;41.97;5.35;;;8.20;99.90;;;;;;5074622;28;20044;-68
2022/01/03 04:18:56;;;;;;;44.50;5.40;;;8.40;99.90;;;;;;5074740;28;20481;-69
2022/01/03 04:21:22;;;;;;;40.17;4.93;;;8.50;99.90;;;;;;5073580;28;20036;-68
2022/01/03 04:23:48;;;;;;;54.20;7.72;;;8.80;99.90;;;;;;5074682;28;20080;-68
2022/01/03 04:26:14;;;;;;;37.22;4.95;;;8.60;99.90;;;;;;5074488;28;20162;-69
2022/01/03 04:28:39;;;;;;;38.58;5.03;;;8.80;99.90;;;;;;5074448;28;20048;-69
2022/01/03 04:31:06;;;;;;;40.63;6.00;;;8.70;99.90;;;;;;5073948;28;20048;-69
2022/01/03 04:33:32;;;;;;;38.88;5.15;;;8.60;99.90;;;;;;5074013;28;20056;-69
2022/01/03 04:35:57;;;;;;;;;;;8.50;99.90;;;;;;5075134;28;20086;-68
2022/01/03 04:38:23;;;;;;;55.22;7.28;;;8.20;99.90;;;;;;5074260;28;19920;-68
2022/01/03 04:40:49;;;;;;;41.05;5.47;;;8.30;99.90;;;;;;5074871;28;20060;-70
2022/01/03 04:43:15;;;;;;;41.08;6.35;;;8.50;99.90;;;;;;5073858;28;20557;-69
2022/01/03 04:45:41;;;;;;;45.95;6.00;;;8.00;99.90;;;;;;5074030;28;20052;-70
2022/01/03 04:48:07;;;;;;;36.45;5.18;;;8.50;99.90;;;;;;5073426;28;20476;-69
2022/01/03 04:50:33;;;;;;;33.90;4.72;;;8.50;99.90;;;;;;5074512;28;20048;-68
2022/01/03 04:52:58;;;;;;;43.55;4.93;;;8.20;99.90;;;;;;5074424;28;20044;-69
2022/01/03 04:55:24;;;;;;;36.20;5.95;;;8.40;99.90;;;;;;5073574;28;20050;-69
2022/01/03 04:57:50;;;;;;;45.13;5.32;;;8.40;99.90;;;;;;5056005;28;20048;-68
2022/01/03 05:00:17;;;;;;;42.30;6.15;;;8.30;99.90;;;;;;5074692;28;20062;-68
2022/01/03 05:02:43;;;;;;;41.88;6.15;;;8.30;99.90;;;;;;5073055;28;20063;-68
2022/01/03 05:05:09;;;;;;;37.33;4.85;;;8.50;99.90;;;;;;5073127;28;20048;-69
2022/01/03 05:07:34;;;;;;;33.53;5.45;;;8.10;99.90;;;;;;5073763;28;20043;-68
2022/01/03 05:10:00;;;;;;;47.13;6.20;;;8.50;99.90;;;;;;5039551;28;20047;-68
2022/01/03 05:12:26;;;;;;;34.45;5.90;;;8.40;99.90;;;;;;5074193;28;20044;-68
2022/01/03 05:14:51;;;;;;;51.83;7.50;;;8.30;99.90;;;;;;5073669;28;20131;-72
2022/01/03 05:17:17;;;;;;;39.78;5.47;;;8.40;99.90;;;;;;5073601;28;20099;-71
2022/01/03 05:19:43;;;;;;;41.25;5.60;;;8.50;99.90;;;;;;5073666;28;20044;-68
2022/01/03 05:22:08;;;;;;;32.58;4.82;;;8.40;99.90;;;;;;5072993;28;20358;-68
2022/01/03 05:24:35;;;;;;;50.70;5.80;;;8.60;99.90;;;;;;5072461;28;20048;-69
2022/01/03 05:27:01;;;;;;;;;;;8.40;99.90;;;;;;5073986;28;20052;-68
2022/01/03 05:29:28;;;;;;;42.72;5.88;;;8.60;99.90;;;;;;5073527;28;19928;-69
2022/01/03 05:31:54;;;;;;;44.80;6.28;;;8.40;99.90;;;;;;5073454;28;20044;-68
2022/01/03 05:34:20;;;;;;;43.10;5.72;;;8.50;99.90;;;;;;5073480;28;20048;-69
2022/01/03 05:36:46;;;;;;;51.75;8.05;;;8.40;99.90;;;;;;5073418;28;20049;-69
2022/01/03 05:39:12;;;;;;;48.92;6.45;;;8.10;99.90;;;;;;5073458;28;20048;-69
2022/01/03 05:41:38;;;;;;;37.65;5.57;;;8.20;99.90;;;;;;5073419;28;20056;-67
2022/01/03 05:44:04;;;;;;;40.50;6.25;;;8.30;99.90;;;;;;5072769;28;20052;-68
2022/01/03 05:46:30;;;;;;;41.67;6.15;;;8.50;99.90;;;;;;5073881;28;20036;-69
2022/01/03 05:48:55;;;;;;;47.58;6.28;;;8.40;99.90;;;;;;5073658;28;20128;-69
2022/01/03 05:51:21;;;;;;;42.70;6.40;;;8.40;99.90;;;;;;5072609;28;20044;-70
2022/01/03 05:53:47;;;;;;;41.33;6.07;;;8.60;99.90;;;;;;5073476;28;20417;-70
2022/01/03 05:56:13;;;;;;;40.85;6.30;;;8.70;99.90;;;;;;5073223;28;20124;-69
2022/01/03 05:58:38;;;;;;;44.17;6.90;;;8.50;99.90;;;;;;5072755;28;20132;-69
2022/01/03 06:01:04;;;;;;;49.17;6.45;;;8.40;99.90;;;;;;5077912;28;20464;-69
2022/01/03 06:03:36;;;;;;;42.00;5.43;;;;;;;;;;5076805;28;20080;-69
2022/01/03 06:08:27;;;;;;;34.00;6.13;;;8.60;99.90;;;;;;5077168;28;20082;-69
2022/01/03 06:10:53;;;;;;;40.80;6.10;;;8.40;99.90;;;;;;5059436;28;20111;-69
2022/01/03 06:13:19;;;;;;;34.42;4.93;;;8.40;99.90;;;;;;5077082;28;20040;-69
2022/01/03 06:15:45;;;;;;;57.22;7.22;;;8.40;99.90;;;;;;5077631;28;20053;-70
2022/01/03 06:18:15;;;;;;;44.60;5.35;;;8.60;99.90;;;;;;5076894;28;20041;-69
2022/01/03 06:20:44;;;;;;;41.60;6.38;;;8.70;99.90;;;;;;5076913;28;20044;-69
2022/01/03 06:23:11;;;;;;;40.38;5.97;;;8.30;99.90;;;;;;5076767;28;20040;-69
2022/01/03 06:25:38;;;;;;;47.25;7.60;;;8.40;99.90;;;;;;5077063;28;20074;-67
2022/01/03 06:28:07;;;;;;;42.53;6.85;;;8.60;99.90;;;;;;5075740;28;20053;-71
2022/01/03 06:30:34;;;;;;;41.28;6.07;;;8.30;99.90;;;;;;5076636;28;20044;-68
2022/01/03 06:32:59;;;;;;;46.15;6.28;;;8.20;99.90;;;;;;5075486;28;20053;-69
2022/01/03 06:35:25;;;;;;;41.80;6.95;;;8.40;99.90;;;;;;5076527;28;20040;-70
2022/01/03 06:37:51;;;;;;;45.83;6.38;;;8.40;99.90;;;;;;5058649;28;20056;-69
2022/01/03 06:40:17;;;;;;;46.13;5.78;;;8.50;99.90;;;;;;5076465;28;20060;-68
2022/01/03 06:42:43;;;;;;;46.80;6.78;;;8.30;99.90;;;;;;5076444;28;20048;-69
2022/01/03 06:45:09;;;;;;;53.58;7.18;;;8.50;99.90;;;;;;5076451;28;20048;-70
2022/01/03 06:47:35;;;;;;;;;;;8.70;99.90;;;;;;5075768;28;20051;-67
2022/01/03 06:50:01;;;;;;;37.55;5.60;;;8.50;99.90;;;;;;5076646;28;19920;-67
2022/01/03 06:52:26;;;;;;;41.35;5.93;;;8.50;99.90;;;;;;5076310;28;20473;-69
2022/01/03 06:54:52;;;;;;;54.72;6.05;;;8.70;99.90;;;;;;5076304;28;20140;-68
2022/01/03 06:57:18;;;;;;;39.15;5.70;;;8.40;99.90;;;;;;5076930;28;20049;-69
2022/01/03 07:06:49;;;;;;;51.70;5.85;;;;;;;;;;5111226;27;20477;-67
2022/01/03 07:09:15;;;;;;;67.22;8.43;;;8.50;99.90;;;;;;5111592;28;20054;-66
2022/01/03 07:11:41;;;;;;;56.63;7.30;;;8.40;99.90;;;;;;5110403;28;20043;-67
2022/01/03 07:19:35;;;;;;;39.05;5.57;;;8.50;99.90;;;;;;5111206;28;20063;-67
2022/01/03 07:22:05;;;;;;;44.13;5.82;;;8.30;99.90;;;;;;5110065;28;20040;-66
2022/01/03 07:24:35;;;;;;;51.05;5.93;;;8.30;99.90;;;;;;5111034;28;20483;-67
2022/01/03 07:27:08;;;;;;;44.33;6.32;;;8.10;99.90;;;;;;5092863;28;20048;-67
2022/01/03 07:29:34;;;;;;;42.55;6.35;;;8.40;99.90;;;;;;5110924;28;20123;-67
2022/01/03 07:32:00;;;;;;;46.10;6.50;;;8.30;99.90;;;;;;5110942;28;20136;-68
2022/01/03 07:34:26;;;;;;;47.60;6.07;;;8.40;99.90;;;;;;5109836;28;20050;-67
2022/01/03 07:36:53;;;;;;;49.72;7.22;;;8.60;99.90;;;;;;5104957;28;20131;-66
2022/01/03 07:39:19;;;;;;;63.35;6.35;;;8.40;99.90;;;;;;5107062;28;20480;-67
2022/01/03 07:41:44;;;;;;;45.55;6.70;;;8.20;99.90;;;;;;5105744;28;20044;-67
2022/01/03 07:44:10;;;;;;;48.60;5.65;;;8.40;99.90;;;;;;5106987;28;20108;-67
2022/01/03 07:46:36;;;;;;;37.80;5.80;;;9.70;99.90;;;;;;5106846;28;20046;-67
2022/01/03 07:49:02;;;;;;;46.88;6.03;;;8.20;99.90;;;;;;5107801;28;20122;-67
2022/01/03 07:51:27;;;;;;;47.53;5.75;;;8.10;99.90;;;;;;5106128;28;20036;-67
2022/01/03 07:53:53;;;;;;;40.35;5.78;;;8.10;99.90;;;;;;5107944;28;20051;-73
2022/01/03 07:56:19;;;;;;;44.97;5.32;;;8.10;99.90;;;;;;5107327;28;20040;-67
2022/01/03 07:58:45;;;;;;;43.35;6.03;;;8.20;99.90;;;;;;5106257;28;20048;-68
2022/01/03 08:01:11;;;;;;;;;;;8.50;99.90;;;;;;5107128;28;20062;-67
2022/01/03 08:03:37;;;;;;;47.17;6.50;;;8.70;99.90;;;;;;5107576;28;20364;-68
2022/01/03 08:06:02;;;;;;;48.13;6.15;;;8.30;99.90;;;;;;5105397;28;20512;-69
2022/01/03 08:08:28;;;;;;;47.47;5.80;;;8.30;99.90;;;;;;5106311;28;20075;-67
2022/01/03 08:10:54;;;;;;;40.10;5.72;;;8.40;99.90;;;;;;5104642;28;20086;-67
2022/01/03 08:13:20;;;;;;;45.20;6.55;;;8.20;99.90;;;;;;5107253;28;20043;-69
2022/01/03 08:15:45;;;;;;;35.83;5.07;;;8.20;99.90;;;;;;5107658;28;20043;-70
2022/01/03 08:18:12;;;;;;;37.40;6.00;;;8.30;99.90;;;;;;5092148;28;20127;-68
2022/01/03 08:20:38;;;;;;;50.78;7.32;;;8.70;99.90;;;;;;5092487;28;20058;-70
2022/01/03 08:23:03;;;;;;;45.42;7.55;;;8.00;99.90;;;;;;5093955;28;20616;-69
2022/01/03 08:25:32;;;;;;;49.40;6.38;;;8.20;99.90;;;;;;5093349;28;20048;-67
2022/01/03 08:27:58;;;;;;;54.25;7.28;;;9.30;99.90;;;;;;5092758;28;20048;-68
2022/01/03 08:30:23;;;;;;;49.63;6.57;;;8.80;99.90;;;;;;5093949;28;20044;-68
2022/01/03 08:32:49;;;;;;;44.08;5.68;;;8.20;99.90;;;;;;5092179;28;20040;-67
2022/01/03 08:35:15;;;;;;;48.05;6.03;;;8.50;99.90;;;;;;5093537;28;20068;-71
2022/01/03 08:37:40;;;;;;;48.65;6.85;;;8.30;99.90;;;;;;5089194;28;20071;-70
2022/01/03 08:40:07;;;;;;;49.90;6.28;;;9.50;99.90;;;;;;5095448;28;20115;-68
2022/01/03 08:42:36;;;;;;;46.95;6.35;;;8.10;99.90;;;;;;5095563;28;20040;-69
2022/01/03 08:45:04;;;;;;;45.67;5.70;;;8.60;99.90;;;;;;5095702;28;20149;-69
2022/01/03 08:47:29;;;;;;;53.33;6.80;;;8.10;99.90;;;;;;5095634;28;20484;-69
2022/01/03 08:49:56;;;;;;;48.80;6.90;;;8.60;99.90;;;;;;5094149;28;20048;-69
2022/01/03 08:52:22;;;;;;;49.50;6.75;;;8.70;99.90;;;;;;5095538;28;20113;-70
2022/01/03 08:54:48;;;;;;;40.40;6.13;;;8.10;99.90;;;;;;5095457;28;20051;-70
2022/01/03 08:57:14;;;;;;;37.15;6.15;;;8.40;99.90;;;;;;5095555;28;20044;-72
2022/01/03 08:59:39;;;;;;;49.13;6.15;;;8.30;99.90;;;;;;5094573;28;20388;-71
2022/01/03 09:02:05;;;;;;;42.30;5.93;;;8.80;99.90;;;;;;5094283;28;20322;-71
2022/01/03 09:04:31;;;;;;;37.53;5.85;;;8.60;99.90;;;;;;5094191;28;20484;-71
2022/01/03 09:06:58;;;;;;;40.70;6.03;;;9.90;99.90;;;;;;5095525;28;20056;-69
2022/01/03 09:09:27;;;;;;;38.45;5.40;;;8.80;99.90;;;;;;5095020;28;20047;-69
2022/01/03 09:11:52;;;;;;;43.35;5.57;;;8.80;99.90;;;;;;5094256;28;20048;-70
2022/01/03 09:14:18;;;;;;;38.95;6.53;;;9.20;99.90;;;;;;5095249;28;20048;-71
2022/01/03 09:16:44;;;;;;;37.78;4.68;;;9.70;99.90;;;;;;5095285;28;20075;-71
2022/01/03 09:19:10;;;;;;;37.38;6.35;;;9.40;99.90;;;;;;5095131;28;20480;-71
2022/01/03 09:21:36;;;;;;;;;;;8.90;99.90;;;;;;5094296;28;20048;-70
2022/01/03 09:24:27;;;;;;;41.80;7.72;;;8.90;99.90;;;;;;5093828;28;19924;-70
2022/01/03 09:29:37;;;;;;;40.53;5.88;;;9.30;99.90;;;;;;5094003;28;20091;-67
2022/01/03 09:32:03;;;;;;;40.63;5.60;;;10.10;99.90;;;;;;5076824;28;20079;-68
2022/01/03 09:34:29;;;;;;;58.55;6.45;;;9.00;99.90;;;;;;5094844;28;20118;-68
2022/01/03 09:36:55;;;;;;;39.60;5.05;;;9.00;99.90;;;;;;5093065;28;20551;-69
2022/01/03 09:39:22;;;;;;;47.15;6.00;;;9.10;99.90;;;;;;5094650;28;20052;-69
2022/01/03 09:41:57;;;;;;;35.85;5.88;;;9.00;99.90;;;;;;5094561;28;20059;-68
2022/01/03 09:44:29;;;;;;;41.45;6.18;;;8.90;99.90;;;;;;5093068;28;20073;-70
2022/01/03 09:46:59;;;;;;;30.70;5.60;;;9.10;99.90;;;;;;5093673;28;20537;-70
2022/01/03 09:49:26;;;;;;;37.97;5.45;;;9.30;99.90;;;;;;5093122;28;20040;-72
2022/01/03 09:51:52;;;;;;;40.53;5.57;;;9.00;99.90;;;;;;5092830;28;20086;-75
2022/01/03 09:54:21;;;;;;;36.15;4.95;;;9.30;99.90;;;;;;5090616;28;20163;-69
2022/01/03 09:56:51;;;;;;;47.15;5.65;;;9.20;99.90;;;;;;5092043;28;20043;-69
2022/01/03 09:59:18;;;;;;;37.80;6.38;;;9.80;99.90;;;;;;5089921;28;20073;-73
2022/01/03 10:01:45;;;;;;;31.08;5.38;;;8.80;99.90;;;;;;5090011;28;20144;-75
2022/01/03 10:04:13;;;;;;;35.75;6.15;;;9.10;99.90;;;;;;5090252;28;20484;-69
2022/01/03 10:06:39;;;;;;;42.17;6.15;;;9.30;99.90;;;;;;5091166;28;20060;-74
2022/01/03 10:09:05;;;;;;;40.38;5.50;;;9.50;99.90;;;;;;5089147;28;20040;-72
2022/01/03 10:11:31;;;;;;;38.35;6.90;;;10.70;99.90;;;;;;5071461;28;20071;-70
2022/01/03 10:13:59;;;;;;;41.78;5.65;;;9.50;99.90;;;;;;5091097;28;20118;-73
2022/01/03 10:16:25;;;;;;;51.05;6.63;;;9.10;99.90;;;;;;5091657;28;20100;-70
2022/01/03 10:18:51;;;;;;;42.60;5.97;;;9.50;99.90;;;;;;5092577;28;20052;-69
2022/01/03 10:21:40;;;;;;;41.83;5.72;;;9.40;99.90;;;;;;5093748;28;20387;-70
2022/01/03 10:24:07;;;;;;;34.67;5.18;;;9.30;99.90;;;;;;5093986;28;20055;-71
2022/01/03 10:26:34;;;;;;;32.00;5.20;;;9.40;99.90;;;;;;5092643;28;20477;-70
2022/01/03 10:29:11;;;;;;;37.35;5.60;;;9.30;99.90;;;;;;5094086;28;20503;-71
2022/01/03 10:31:42;;;;;;;37.95;5.10;;;9.60;99.90;;;;;;5092955;28;20493;-73
2022/01/03 10:34:14;;;;;;;35.63;5.25;;;9.50;99.90;;;;;;5093887;28;20044;-69
2022/01/03 10:36:42;;;;;;;40.25;5.75;;;10.10;99.90;;;;;;5092651;28;20048;-69
2022/01/03 10:39:18;;;;;;;34.22;5.47;;;9.50;99.90;;;;;;5093763;28;20044;-69
2022/01/03 10:41:50;;;;;;;39.90;5.78;;;9.70;99.90;;;;;;5094131;28;20123;-71
2022/01/03 10:44:37;;;;;;;33.55;4.72;;;10.50;99.90;;;;;;5092520;28;20040;-70
2022/01/03 10:47:04;;;;;;;;;;;9.40;99.90;;;;;;5094098;28;20044;-68
2022/01/03 10:49:31;;;;;;;;;;;9.70;99.90;;;;;;5094130;28;19942;-71
2022/01/03 10:52:18;;;;;;;35.72;4.78;;;9.80;99.90;;;;;;5093757;28;19927;-74
2022/01/03 10:55:06;;;;;;;37.25;4.97;;;9.60;99.90;;;;;;5093444;28;20089;-68
2022/01/03 10:57:43;;;;;;;;;;;9.60;99.90;;;;;;5092833;28;20060;-70
2022/01/03 11:00:17;;;;;;;35.22;5.95;;;9.30;99.90;;;;;;5126249;27;19920;-70
2022/01/03 11:05:51;;;;;;;35.95;5.25;;;9.50;99.90;;;;;;5092848;28;20392;-69
2022/01/03 11:11:01;;;;;;;34.72;5.72;;;9.40;99.90;;;;;;5093614;28;20105;-70
2022/01/03 11:13:27;;;;;;;37.28;4.75;;;9.20;99.90;;;;;;5092585;28;20560;-72
2022/01/03 11:15:55;;;;;;;34.90;5.18;;;9.60;99.90;;;;;;5093470;28;20384;-71
2022/01/03 11:18:26;;;;;;;38.92;6.05;;;9.30;99.90;;;;;;5093053;28;20489;-70
2022/01/03 11:21:08;;;;;;;37.17;5.43;;;9.80;99.90;;;;;;5093618;28;20055;-68
2022/01/03 11:23:35;;;;;;;44.35;5.55;;;9.80;99.90;;;;;;5093501;28;20044;-69
2022/01/03 11:26:12;;;;;;;40.45;5.57;;;10.10;99.90;;;;;;5092118;28;20050;-69
2022/01/03 11:28:40;;;;;;;33.17;5.93;;;9.90;99.90;;;;;;5087947;28;20156;-70
2022/01/03 11:31:07;;;;;;;33.13;4.97;;;9.60;99.90;;;;;;5090947;28;20058;-69
2022/01/03 11:33:35;;;;;;;28.25;3.92;;;10.00;99.90;;;;;;5090421;28;20455;-69
2022/01/03 11:36:02;;;;;;;41.97;6.00;;;9.80;99.90;;;;;;5090269;28;20080;-68
2022/01/03 11:38:30;;;;;;;32.78;5.38;;;9.80;99.90;;;;;;5089666;28;20643;-76
2022/01/03 11:41:01;;;;;;;35.05;4.65;;;9.80;99.90;;;;;;5090027;28;20056;-72
2022/01/03 11:43:28;;;;;;;30.20;4.25;;;9.80;99.90;;;;;;5090424;28;20442;-69
2022/01/03 11:45:54;;;;;;;33.78;6.15;;;10.30;99.90;;;;;;5089078;28;20083;-70
2022/01/03 11:48:20;;;;;;;29.40;4.20;;;9.80;99.90;;;;;;5089649;28;20052;-68
2022/01/03 11:50:53;;;;;;;38.47;5.80;;;9.90;99.90;;;;;;5089282;28;20528;-70
2022/01/03 11:53:20;;;;;;;30.60;4.60;;;9.70;99.90;;;;;;5095028;28;20050;-69
2022/01/03 11:55:51;;;;;;;35.97;4.68;;;10.00;99.90;;;;;;5096844;28;20032;-68
2022/01/03 12:04:13;;;;;;;37.92;4.95;;;9.90;99.90;;;;;;5095092;28;20055;-69
2022/01/03 12:06:40;;;;;;;28.40;4.75;;;9.60;99.90;;;;;;5095664;28;20063;-68
2022/01/03 12:09:11;;;;;;;36.15;4.55;;;10.00;99.90;;;;;;5095427;28;20058;-70
2022/01/03 12:11:53;;;;;;;35.75;5.05;;;9.70;99.90;;;;;;5096247;28;20048;-69
2022/01/03 12:14:21;;;;;;;30.73;4.13;;;10.00;99.90;;;;;;5096655;28;20409;-68
2022/01/03 12:16:49;;;;;;;36.83;4.97;;;9.90;99.90;;;;;;5096046;28;20389;-68
2022/01/03 12:19:28;;;;;;;28.77;5.30;;;11.00;99.90;;;;;;5078241;28;20048;-69
2022/01/03 12:21:58;;;;;;;28.42;5.00;;;9.90;99.90;;;;;;5096476;28;20089;-71
2022/01/03 12:24:26;;;;;;;29.45;4.65;;;10.00;99.90;;;;;;5096423;28;20436;-69
2022/01/03 12:27:13;;;;;;;32.72;4.68;;;10.40;99.90;;;;;;5095085;28;20097;-68
2022/01/03 12:30:27;;;;;;;34.45;6.22;;;10.20;99.90;;;;;;5096300;28;20090;-71
2022/01/03 12:33:08;;;;;;;38.22;5.20;;;10.20;99.90;;;;;;5096023;28;20054;-69
2022/01/03 12:35:43;;;;;;;33.97;5.53;;;9.80;99.90;;;;;;5096176;28;20094;-69
2022/01/03 12:38:10;;;;;;;32.45;5.20;;;11.30;99.90;;;;;;5096114;28;20121;-69
2022/01/03 12:40:42;;;;;;;35.00;5.03;;;10.10;99.90;;;;;;5095269;28;20052;-71
2022/01/03 12:43:11;;;;;;;33.70;5.28;;;9.90;99.90;;;;;;5095052;28;20048;-72
2022/01/03 12:45:36;;;;;;;31.25;4.90;;;10.30;99.90;;;;;;5095108;28;20134;-76
2022/01/03 12:48:11;;;;;;;42.88;5.55;;;9.90;99.90;;;;;;5078070;28;20123;-69
2022/01/03 12:50:43;;;;;;;34.30;6.53;;;10.20;99.90;;;;;;5095917;28;20058;-70
2022/01/03 12:53:12;;;;;;;33.78;5.18;;;10.00;99.90;;;;;;5094971;28;20377;-70
2022/01/03 12:55:38;;;;;;;37.10;5.57;;;10.00;99.90;;;;;;5094732;28;20450;-69
2022/01/03 12:58:16;;;;;;;34.95;5.75;;;9.80;99.90;;;;;;5095749;28;20044;-69
2022/01/03 13:00:43;;;;;;;37.17;5.32;;;9.60;99.90;;;;;;5095423;28;20059;-70
2022/01/03 13:03:43;;;;;;;31.77;5.45;;;10.20;99.90;;;;;;5077648;28;20105;-72
2022/01/03 13:06:20;;;;;;;37.25;5.63;;;10.20;99.90;;;;;;5082849;28;20056;-70
2022/01/03 13:08:52;;;;;;;43.40;6.47;;;9.70;99.90;;;;;;5095686;28;20055;-72
2022/01/03 13:11:32;;;;;;;35.85;5.13;;;9.90;99.90;;;;;;5094414;28;20472;-81
2022/01/03 13:14:07;;;;;;;33.58;6.47;;;10.20;99.90;;;;;;5094123;28;20048;-69
2022/01/03 13:16:47;;;;;;;34.55;5.65;;;10.10;99.90;;;;;;5095090;28;20044;-69
2022/01/03 13:19:25;;;;;;;30.50;5.22;;;10.10;99.90;;;;;;5095399;28;20051;-69
2022/01/03 13:21:56;;;;;;;33.90;5.50;;;10.00;99.90;;;;;;5095624;28;20039;-71
2022/01/03 13:24:43;;;;;;;29.73;5.03;;;10.20;99.90;;;;;;5095359;28;20055;-71
2022/01/03 13:27:16;;;;;;;39.67;5.15;;;10.30;99.90;;;;;;5095319;28;20052;-70
2022/01/03 13:29:52;;;;;;;33.28;5.63;;;11.30;99.90;;;;;;5093842;28;20492;-70